createdAt,value
2022-10-17T00:01:01.887Z,0.80
2022-10-17T00:03:29.536Z,0.80
2022-10-17T00:05:58.333Z,0.85
2022-10-17T00:08:26.435Z,0.85
2022-10-17T00:10:59.907Z,0.85
2022-10-17T00:13:27.897Z,0.90
2022-10-17T00:15:55.611Z,1.00
2022-10-17T00:18:23.377Z,0.88
2022-10-17T00:20:51.143Z,0.80
2022-10-17T00:23:18.954Z,0.90
2022-10-17T00:25:46.548Z,0.80
2022-10-17T00:28:17.092Z,0.90
2022-10-17T00:30:44.541Z,0.70
2022-10-17T00:33:12.012Z,0.82
2022-10-17T00:35:39.475Z,0.70
2022-10-17T00:38:06.951Z,0.63
2022-10-17T00:40:34.395Z,0.70
2022-10-17T00:43:01.855Z,0.60
2022-10-17T00:45:31.892Z,0.70
2022-10-17T00:48:03.891Z,0.70
2022-10-17T00:50:31.936Z,0.70
2022-10-17T00:53:02.396Z,0.70
2022-10-17T00:55:33.491Z,0.70
2022-10-17T00:58:04.236Z,0.70
2022-10-17T01:00:33.322Z,0.70
2022-10-17T01:03:00.808Z,0.77
2022-10-17T01:05:28.383Z,0.70
2022-10-17T01:07:56.232Z,0.70
2022-10-17T01:10:30.972Z,0.77
2022-10-17T01:13:09.483Z,0.60
2022-10-17T01:15:51.654Z,0.60
2022-10-17T01:18:33.811Z,0.70
2022-10-17T01:21:20.870Z,0.77
2022-10-17T01:24:17.463Z,0.60
2022-10-17T01:27:04.943Z,0.63
2022-10-17T01:29:51.053Z,0.50
2022-10-17T01:32:26.371Z,0.50
2022-10-17T01:34:58.563Z,0.70
2022-10-17T01:37:30.491Z,0.57
2022-10-17T01:40:04.520Z,1.95
2022-10-17T01:42:36.886Z,0.75
2022-10-17T01:45:09.988Z,0.80
2022-10-17T01:47:40.404Z,0.77
2022-10-17T01:50:14.894Z,0.80
2022-10-17T01:52:46.472Z,0.82
2022-10-17T01:55:19.482Z,0.90
2022-10-17T01:57:51.855Z,1.00
2022-10-17T02:00:21.912Z,0.93
2022-10-17T02:02:53.928Z,1.15
2022-10-17T02:05:25.966Z,1.27
2022-10-17T02:07:53.431Z,1.15
2022-10-17T02:10:31.750Z,1.17
2022-10-17T02:13:04.338Z,1.02
2022-10-17T02:15:59.190Z,1.08
2022-10-17T02:18:46.320Z,0.95
2022-10-17T02:21:25.163Z,1.13
2022-10-17T02:23:57.194Z,1.10
2022-10-17T02:26:30.979Z,1.00
2022-10-17T02:29:06.964Z,1.05
2022-10-17T02:31:39.008Z,0.95
2022-10-17T02:34:13.320Z,1.25
2022-10-17T02:36:54.762Z,1.23
2022-10-17T02:39:24.258Z,1.00
2022-10-17T02:41:53.693Z,0.93
2022-10-17T02:44:22.734Z,1.00
2022-10-17T02:46:58.316Z,1.23
2022-10-17T02:49:29.851Z,1.05
2022-10-17T02:52:05.194Z,1.10
2022-10-17T02:54:38.083Z,1.20
2022-10-17T02:57:11.648Z,0.95
2022-10-17T02:59:41.546Z,1.02
2022-10-17T03:02:09.352Z,1.23
2022-10-17T03:04:38.537Z,1.20
2022-10-17T03:07:05.981Z,1.13
2022-10-17T03:09:33.448Z,0.93
2022-10-17T03:12:00.886Z,1.05
2022-10-17T03:14:28.330Z,1.05
2022-10-17T03:16:55.802Z,1.10
2022-10-17T03:19:23.280Z,1.17
2022-10-17T03:21:52.083Z,1.10
2022-10-17T03:24:19.506Z,1.10
2022-10-17T03:29:19.309Z,1.20
2022-10-17T03:31:47.035Z,1.25
2022-10-17T03:34:16.666Z,1.25
2022-10-17T03:36:44.177Z,1.38
2022-10-17T03:39:13.318Z,1.23
2022-10-17T03:41:40.775Z,1.10
2022-10-17T03:44:08.224Z,1.00
2022-10-17T03:46:35.705Z,1.00
2022-10-17T03:49:03.151Z,0.95
2022-10-17T03:51:30.601Z,0.90
2022-10-17T03:53:58.047Z,0.93
2022-10-17T03:56:27.718Z,0.98
2022-10-17T03:58:55.778Z,1.30
2022-10-17T04:01:24.081Z,1.00
2022-10-17T04:03:52.919Z,1.00
2022-10-17T04:06:20.728Z,0.90
2022-10-17T04:08:48.183Z,0.90
2022-10-17T04:11:18.104Z,1.02
2022-10-17T04:13:47.112Z,1.00
2022-10-17T04:16:16.223Z,1.00
2022-10-17T04:18:44.198Z,1.00
2022-10-17T04:21:12.346Z,1.10
2022-10-17T04:23:39.815Z,1.10
2022-10-17T04:26:08.114Z,1.10
2022-10-17T04:28:35.778Z,1.10
2022-10-17T04:31:06.568Z,1.05
2022-10-17T04:33:35.658Z,1.05
2022-10-17T04:36:05.388Z,1.20
2022-10-17T04:38:33.139Z,0.90
2022-10-17T04:41:05.203Z,1.10
2022-10-17T04:43:33.254Z,1.20
2022-10-17T04:46:01.493Z,1.08
2022-10-17T04:48:31.208Z,1.27
2022-10-17T04:51:02.260Z,1.27
2022-10-17T04:53:32.036Z,1.15
2022-10-17T04:55:59.529Z,1.13
2022-10-17T04:58:29.386Z,1.10
2022-10-17T05:00:57.262Z,1.27
2022-10-17T05:03:24.866Z,1.27
2022-10-17T05:05:53.614Z,1.33
2022-10-17T05:08:21.194Z,1.38
2022-10-17T05:10:48.695Z,1.20
2022-10-17T05:13:16.410Z,1.30
2022-10-17T05:15:44.189Z,1.25
2022-10-17T05:18:11.677Z,1.33
2022-10-17T05:20:39.130Z,1.25
2022-10-17T05:23:07.922Z,1.38
2022-10-17T05:25:35.402Z,1.40
2022-10-17T05:28:02.892Z,1.33
2022-10-17T05:30:33.816Z,1.30
2022-10-17T05:33:04.347Z,1.27
2022-10-17T05:35:31.827Z,1.30
2022-10-17T05:37:59.963Z,1.20
2022-10-17T05:40:28.769Z,1.25
2022-10-17T05:42:56.547Z,1.08
2022-10-17T05:45:24.108Z,1.48
2022-10-17T05:47:51.896Z,1.30
2022-10-17T05:50:21.000Z,1.48
2022-10-17T05:52:48.472Z,1.40
2022-10-17T05:55:15.957Z,1.20
2022-10-17T05:57:44.741Z,1.20
2022-10-17T06:00:13.620Z,1.50
2022-10-17T06:02:41.081Z,1.13
2022-10-17T06:05:09.291Z,1.20
2022-10-17T06:07:37.003Z,1.17
2022-10-17T06:10:05.466Z,0.98
2022-10-17T06:12:32.946Z,1.20
2022-10-17T06:15:01.996Z,1.13
2022-10-17T06:17:30.304Z,1.08
2022-10-17T06:19:58.020Z,1.10
2022-10-17T06:22:25.606Z,1.20
2022-10-17T06:24:53.679Z,1.20
2022-10-17T06:27:21.624Z,1.23
2022-10-17T06:29:51.123Z,1.15
2022-10-17T06:32:20.040Z,1.20
2022-10-17T06:34:47.720Z,1.23
2022-10-17T06:37:15.180Z,1.20
2022-10-17T06:39:42.737Z,1.13
2022-10-17T06:42:10.173Z,1.10
2022-10-17T06:44:37.970Z,1.00
2022-10-17T06:47:05.616Z,1.23
2022-10-17T06:49:34.404Z,1.20
2022-10-17T06:52:01.912Z,1.30
2022-10-17T06:54:29.413Z,1.25
2022-10-17T06:56:57.041Z,1.63
2022-10-17T06:59:24.535Z,1.67
2022-10-17T07:01:51.995Z,1.25
2022-10-17T07:04:19.601Z,1.23
2022-10-17T07:06:48.441Z,1.40
2022-10-17T07:09:16.937Z,1.77
2022-10-17T07:11:44.427Z,1.58
2022-10-17T07:14:12.027Z,1.63
2022-10-17T07:16:39.509Z,1.33
2022-10-17T07:19:07.036Z,1.08
2022-10-17T07:21:36.701Z,0.82
2022-10-17T07:24:08.274Z,1.00
2022-10-17T07:26:35.903Z,1.00
2022-10-17T07:29:03.570Z,1.00
2022-10-17T07:31:31.051Z,1.17
2022-10-17T07:34:00.369Z,1.00
2022-10-17T07:36:27.916Z,1.17
2022-10-17T07:38:55.395Z,1.20
2022-10-17T07:41:24.147Z,1.20
2022-10-17T07:43:51.598Z,1.00
2022-10-17T07:46:19.087Z,0.90
2022-10-17T07:48:46.561Z,0.73
2022-10-17T07:51:14.029Z,0.80
2022-10-17T07:53:45.115Z,0.70
2022-10-17T07:56:15.728Z,0.88
2022-10-17T07:58:44.702Z,0.80
2022-10-17T08:01:15.491Z,0.85
2022-10-17T08:03:45.342Z,1.20
2022-10-17T08:06:13.713Z,1.10
2022-10-17T08:08:41.403Z,1.10
2022-10-17T08:11:11.303Z,1.40
2022-10-17T08:13:40.194Z,1.52
2022-10-17T08:16:14.203Z,1.73
2022-10-17T08:18:43.296Z,2.13
2022-10-17T08:21:12.935Z,1.80
2022-10-17T08:23:40.428Z,1.52
2022-10-17T08:26:10.653Z,1.30
2022-10-17T08:28:39.745Z,1.00
2022-10-17T08:31:10.562Z,0.90
2022-10-17T08:33:38.490Z,0.80
2022-10-17T08:36:07.002Z,0.60
2022-10-17T08:38:36.817Z,0.70
2022-10-17T08:41:13.055Z,0.60
2022-10-17T08:43:55.655Z,0.70
2022-10-17T08:46:31.521Z,0.70
2022-10-17T08:49:01.952Z,0.70
2022-10-17T08:51:33.125Z,0.80
2022-10-17T08:54:07.719Z,0.75
2022-10-17T08:56:48.946Z,0.95
2022-10-17T08:59:21.083Z,0.70
2022-10-17T09:01:58.043Z,0.70
2022-10-17T09:04:45.530Z,0.60
2022-10-17T09:07:21.190Z,0.60
2022-10-17T09:09:59.842Z,0.70
2022-10-17T09:12:38.752Z,0.80
2022-10-17T09:15:32.718Z,0.80
2022-10-17T09:18:08.561Z,0.80
2022-10-17T09:20:41.541Z,0.90
2022-10-17T09:23:14.561Z,0.80
2022-10-17T09:25:45.784Z,0.80
2022-10-17T09:28:20.107Z,0.60
2022-10-17T09:30:51.263Z,0.70
2022-10-17T09:33:34.540Z,0.77
2022-10-17T09:38:42.362Z,0.70
2022-10-17T09:41:44.354Z,0.80
2022-10-17T09:44:16.575Z,0.77
2022-10-17T09:46:52.535Z,0.90
2022-10-17T09:49:27.210Z,0.73
2022-10-17T09:51:54.728Z,0.80
2022-10-17T09:54:25.921Z,0.70
2022-10-17T09:57:01.499Z,0.70
2022-10-17T09:59:34.374Z,0.75
2022-10-17T10:02:10.590Z,0.73
2022-10-17T10:05:08.552Z,0.60
2022-10-17T10:07:38.668Z,0.70
2022-10-17T10:10:09.120Z,0.85
2022-10-17T10:12:39.227Z,1.00
2022-10-17T10:15:35.172Z,0.98
2022-10-17T10:18:02.733Z,0.90
2022-10-17T10:20:35.021Z,1.02
2022-10-17T10:23:08.219Z,1.00
2022-10-17T10:25:36.908Z,0.88
2022-10-17T10:28:11.793Z,0.70
2022-10-17T10:30:40.109Z,0.68
2022-10-17T10:33:12.488Z,0.70
2022-10-17T10:35:41.384Z,0.70
2022-10-17T10:38:12.395Z,0.90
2022-10-17T10:40:47.423Z,1.85
2022-10-17T10:43:24.164Z,0.95
2022-10-17T10:45:53.187Z,0.93
2022-10-17T10:48:23.586Z,0.80
2022-10-17T10:50:56.855Z,0.80
2022-10-17T10:53:43.913Z,0.80
2022-10-17T10:56:17.077Z,0.70
2022-10-17T10:58:55.553Z,0.68
2022-10-17T11:01:29.937Z,0.70
2022-10-17T11:04:08.883Z,0.60
2022-10-17T11:06:41.903Z,0.60
2022-10-17T11:09:23.985Z,0.80
2022-10-17T11:11:59.049Z,0.90
2022-10-17T11:14:38.725Z,0.80
2022-10-17T11:17:14.483Z,0.88
2022-10-17T11:19:47.374Z,0.80
2022-10-17T11:22:21.987Z,0.90
2022-10-17T11:24:59.521Z,0.80
2022-10-17T11:27:29.006Z,0.80
2022-10-17T11:29:57.149Z,1.08
2022-10-17T11:32:28.550Z,0.80
2022-10-17T11:35:01.743Z,0.73
2022-10-17T11:37:35.920Z,0.82
2022-10-17T11:42:39.180Z,0.85
2022-10-17T11:45:12.924Z,1.10
2022-10-17T11:47:46.798Z,1.17
2022-10-17T11:53:15.381Z,0.60
2022-10-17T11:55:44.269Z,0.68
2022-10-17T11:58:30.367Z,0.65
2022-10-17T12:01:07.805Z,0.93
2022-10-17T12:03:49.038Z,0.82
2022-10-17T12:06:23.726Z,0.90
2022-10-17T12:09:02.342Z,0.90
2022-10-17T12:11:41.618Z,0.95
2022-10-17T12:14:40.399Z,1.00
2022-10-17T12:17:26.694Z,0.80
2022-10-17T12:19:54.694Z,0.82
2022-10-17T12:22:25.896Z,1.00
2022-10-17T12:25:00.624Z,1.15
2022-10-17T12:27:38.980Z,1.40
2022-10-17T12:30:17.175Z,1.50
2022-10-17T12:33:07.044Z,1.33
2022-10-17T12:35:36.711Z,1.30
2022-10-17T12:38:19.618Z,1.35
2022-10-17T12:40:56.856Z,1.33
2022-10-17T12:46:56.866Z,1.23
2022-10-17T12:49:49.705Z,1.23
2022-10-17T12:52:22.189Z,1.52
2022-10-17T12:55:07.179Z,1.73
2022-10-17T12:57:44.067Z,1.42
2022-10-17T13:00:21.696Z,1.40
2022-10-17T13:02:50.746Z,1.10
2022-10-17T13:05:27.242Z,1.10
2022-10-17T13:07:56.194Z,1.00
2022-10-17T13:13:07.547Z,0.93
2022-10-17T13:15:37.019Z,1.08
2022-10-17T13:18:04.919Z,1.25
2022-10-17T13:20:33.247Z,1.02
2022-10-17T13:23:00.833Z,1.05
2022-10-17T13:25:29.419Z,0.98
2022-10-17T13:28:13.431Z,1.00
2022-10-17T13:30:41.121Z,1.13
2022-10-17T13:33:30.138Z,1.08
2022-10-17T13:36:01.314Z,1.00
2022-10-17T13:38:34.182Z,1.00
2022-10-17T13:41:30.454Z,1.05
2022-10-17T13:43:53.259Z,1.02
2022-10-17T13:46:39.138Z,0.95
2022-10-17T13:49:16.460Z,0.98
2022-10-17T13:51:46.131Z,1.00
2022-10-17T13:54:33.981Z,1.00
2022-10-17T13:57:03.367Z,0.88
2022-10-17T13:59:38.459Z,1.05
2022-10-17T14:02:12.456Z,1.05
2022-10-17T14:05:04.005Z,1.15
2022-10-17T14:08:05.590Z,0.93
2022-10-17T14:10:31.653Z,1.08
2022-10-17T14:13:00.099Z,1.30
2022-10-17T14:15:31.578Z,1.35
2022-10-17T14:18:05.459Z,1.40
2022-10-17T14:23:36.503Z,1.48
2022-10-17T14:26:13.700Z,1.70
2022-10-17T14:28:43.019Z,1.55
2022-10-17T14:31:22.305Z,1.40
2022-10-17T14:33:51.867Z,1.40
2022-10-17T14:36:20.299Z,1.10
2022-10-17T14:38:50.431Z,1.10
2022-10-17T14:41:41.831Z,1.40
2022-10-17T14:44:21.427Z,1.50
2022-10-17T14:46:54.923Z,1.70
2022-10-17T14:49:32.487Z,1.55
2022-10-17T14:52:32.364Z,1.48
2022-10-17T14:55:01.924Z,1.58
2022-10-17T14:57:43.481Z,1.52
2022-10-17T15:00:15.857Z,1.10
2022-10-17T15:02:45.784Z,1.10
2022-10-17T15:05:14.079Z,1.20
2022-10-17T15:07:42.077Z,1.90
2022-10-17T15:10:24.416Z,2.33
2022-10-17T15:12:58.793Z,2.60
2022-10-17T15:15:27.989Z,3.08
2022-10-17T15:17:56.819Z,3.40
2022-10-17T15:20:27.943Z,3.47
2022-10-17T15:22:55.750Z,3.38
2022-10-17T15:25:23.655Z,3.70
2022-10-17T15:27:51.630Z,3.78
2022-10-17T15:30:22.723Z,4.05
2022-10-17T15:32:51.178Z,4.10
2022-10-17T15:35:21.461Z,3.80
2022-10-17T15:37:49.706Z,3.47
2022-10-17T15:40:19.359Z,2.95
2022-10-17T15:42:46.885Z,2.97
2022-10-17T15:45:16.423Z,2.70
2022-10-17T15:47:50.499Z,2.40
2022-10-17T15:50:21.528Z,1.60
2022-10-17T15:52:50.852Z,1.65
2022-10-17T15:55:19.082Z,1.40
2022-10-17T15:57:48.367Z,1.45
2022-10-17T16:00:18.160Z,1.45
2022-10-17T16:02:46.407Z,1.65
2022-10-17T16:05:16.611Z,1.63
2022-10-17T16:07:46.735Z,1.45
2022-10-17T16:10:14.547Z,1.17
2022-10-17T16:12:42.097Z,0.93
2022-10-17T16:15:14.737Z,0.85
2022-10-17T16:17:43.717Z,0.95
2022-10-17T16:20:12.470Z,0.90
2022-10-17T16:22:42.033Z,1.00
2022-10-17T16:25:20.217Z,0.70
2022-10-17T16:27:48.568Z,0.70
2022-10-17T16:30:16.708Z,0.95
2022-10-17T16:32:44.333Z,1.30
2022-10-17T16:35:17.245Z,1.27
2022-10-17T16:37:44.711Z,1.40
2022-10-17T16:40:14.324Z,1.05
2022-10-17T16:42:41.886Z,1.20
2022-10-17T16:45:11.060Z,1.05
2022-10-17T16:47:38.637Z,1.00
2022-10-17T16:50:06.654Z,0.95
2022-10-17T16:52:34.094Z,1.02
2022-10-17T16:55:01.891Z,0.95
2022-10-17T16:57:30.745Z,0.90
2022-10-17T16:59:58.250Z,0.80
2022-10-17T17:02:25.688Z,0.90
2022-10-17T17:04:53.130Z,0.90
2022-10-17T17:07:21.753Z,1.00
2022-10-17T17:09:49.221Z,0.90
2022-10-17T17:12:16.705Z,1.02
2022-10-17T17:14:45.482Z,1.02
2022-10-17T17:17:19.696Z,1.00
2022-10-17T17:19:58.007Z,0.93
2022-10-17T17:22:25.773Z,0.93
2022-10-17T17:24:53.252Z,0.90
2022-10-17T17:27:21.486Z,0.90
2022-10-17T17:29:50.282Z,0.80
2022-10-17T17:32:17.764Z,0.85
2022-10-17T17:34:45.407Z,0.90
2022-10-17T17:37:13.191Z,0.80
2022-10-17T17:39:40.686Z,0.70
2022-10-17T17:42:08.138Z,0.75
2022-10-17T17:44:35.591Z,0.77
2022-10-17T17:47:08.184Z,0.80
2022-10-17T17:49:35.620Z,0.70
2022-10-17T17:54:38.548Z,0.77
2022-10-17T17:57:08.337Z,0.90
2022-10-17T17:59:36.055Z,0.90
2022-10-17T18:02:06.246Z,1.08
2022-10-17T18:04:34.088Z,0.95
2022-10-17T18:07:01.562Z,1.00
2022-10-17T18:09:29.008Z,0.88
2022-10-17T18:11:56.459Z,0.90
2022-10-17T18:14:25.666Z,0.90
2022-10-17T18:16:53.162Z,0.80
2022-10-17T18:19:23.595Z,0.90
2022-10-17T18:21:51.077Z,1.00
2022-10-17T18:24:18.531Z,1.13
2022-10-17T18:26:46.044Z,1.10
2022-10-17T18:29:13.494Z,1.00
2022-10-17T18:31:40.960Z,0.80
2022-10-17T18:34:08.391Z,0.90
2022-10-17T18:36:37.728Z,0.93
2022-10-17T18:39:06.148Z,1.05
2022-10-17T18:41:34.176Z,0.98
2022-10-17T18:44:02.834Z,0.90
2022-10-17T18:46:32.637Z,0.90
2022-10-17T18:49:00.190Z,0.90
2022-10-17T18:51:28.255Z,0.80
2022-10-17T18:53:58.915Z,0.90
2022-10-17T18:56:27.337Z,0.80
2022-10-17T18:58:55.122Z,0.90
2022-10-17T19:01:24.615Z,0.82
2022-10-17T19:03:54.495Z,0.80
2022-10-17T19:06:24.822Z,0.85
2022-10-17T19:08:52.313Z,0.85
2022-10-17T19:11:22.588Z,0.88
2022-10-17T19:13:51.246Z,0.93
2022-10-17T19:16:20.521Z,0.95
2022-10-17T19:18:50.770Z,0.95
2022-10-17T19:21:21.886Z,0.80
2022-10-17T19:23:52.156Z,0.90
2022-10-17T19:26:22.106Z,0.80
2022-10-17T19:28:52.204Z,1.30
2022-10-17T19:31:26.207Z,1.00
2022-10-17T19:36:23.573Z,0.90
2022-10-17T19:38:54.216Z,0.90
2022-10-17T19:41:25.280Z,1.10
2022-10-17T19:43:53.510Z,1.02
2022-10-17T19:46:22.785Z,1.20
2022-10-17T19:48:51.213Z,1.10
2022-10-17T19:51:21.578Z,1.25
2022-10-17T19:53:49.214Z,1.20
2022-10-17T19:56:18.525Z,1.52
2022-10-17T19:58:48.337Z,1.45
2022-10-17T20:01:17.435Z,1.33
2022-10-17T20:03:45.049Z,1.45
2022-10-17T20:06:13.043Z,1.23
2022-10-17T20:08:41.756Z,1.13
2022-10-17T20:11:11.655Z,1.65
2022-10-17T20:13:39.503Z,1.20
2022-10-17T20:16:12.048Z,1.30
2022-10-17T20:18:40.693Z,1.20
2022-10-17T20:21:11.718Z,1.10
2022-10-17T20:23:39.722Z,1.00
2022-10-17T20:26:25.921Z,1.40
2022-10-17T20:29:01.294Z,1.55
2022-10-17T20:31:30.994Z,1.50
2022-10-17T20:33:59.637Z,1.38
2022-10-17T20:36:27.488Z,1.10
2022-10-17T20:38:55.466Z,1.20
2022-10-17T20:41:23.887Z,1.20
2022-10-17T20:43:52.599Z,1.20
2022-10-17T20:46:36.330Z,1.20
2022-10-17T20:49:08.060Z,1.17
2022-10-17T20:51:36.586Z,1.20
2022-10-17T20:54:05.229Z,1.20
2022-10-17T20:56:34.856Z,1.10
2022-10-17T20:59:03.984Z,1.00
2022-10-17T21:01:33.423Z,0.98
2022-10-17T21:04:21.462Z,1.00
2022-10-17T21:06:51.773Z,1.00
2022-10-17T21:09:19.406Z,1.15
2022-10-17T21:11:48.123Z,0.95
2022-10-17T21:14:16.651Z,0.95
2022-10-17T21:16:44.826Z,0.95
2022-10-17T21:19:13.238Z,1.08
2022-10-17T21:21:42.323Z,1.00
2022-10-17T21:24:14.050Z,1.10
2022-10-17T21:26:43.287Z,1.05
2022-10-17T21:29:11.041Z,1.27
2022-10-17T21:31:40.249Z,1.13
2022-10-17T21:34:09.675Z,1.40
2022-10-17T21:36:37.542Z,1.40
2022-10-17T21:39:05.643Z,1.45
2022-10-17T21:41:34.489Z,1.52
2022-10-17T21:44:04.443Z,1.92
2022-10-17T21:46:32.495Z,1.60
2022-10-17T21:49:01.252Z,1.85
2022-10-17T21:51:29.579Z,1.80
2022-10-17T21:53:58.230Z,1.60
2022-10-17T21:56:29.759Z,1.45
2022-10-17T21:58:59.495Z,1.70
2022-10-17T22:01:29.467Z,1.55
2022-10-17T22:03:59.030Z,1.40
2022-10-17T22:06:43.491Z,1.60
2022-10-17T22:09:15.136Z,1.60
2022-10-17T22:11:44.891Z,1.40
2022-10-17T22:14:15.629Z,1.23
2022-10-17T22:16:44.856Z,1.20
2022-10-17T22:19:13.412Z,1.30
2022-10-17T22:21:41.098Z,1.13
2022-10-17T22:24:11.789Z,1.20
2022-10-17T22:26:39.543Z,1.23
2022-10-17T22:29:08.547Z,1.20
2022-10-17T22:31:38.287Z,1.30
2022-10-17T22:34:06.893Z,1.30
2022-10-17T22:36:35.220Z,1.30
2022-10-17T22:39:02.796Z,1.10
2022-10-17T22:41:30.262Z,1.23
2022-10-17T22:43:57.808Z,1.15
2022-10-17T22:46:25.657Z,1.10
2022-10-17T22:48:54.635Z,1.30
2022-10-17T22:53:54.734Z,1.30
2022-10-17T22:56:23.518Z,1.30
2022-10-17T22:58:51.267Z,1.30
2022-10-17T23:01:20.891Z,1.20
2022-10-17T23:03:49.128Z,1.17
2022-10-17T23:06:18.322Z,1.30
2022-10-17T23:08:46.316Z,1.30
2022-10-17T23:11:14.084Z,1.13
2022-10-17T23:13:41.581Z,1.40
2022-10-17T23:16:09.586Z,1.15
2022-10-17T23:18:38.334Z,1.40
2022-10-17T23:21:06.503Z,1.73
2022-10-17T23:23:35.442Z,1.50
2022-10-17T23:26:08.013Z,1.77
2022-10-17T23:28:36.027Z,2.22
2022-10-17T23:31:14.890Z,2.42
2022-10-17T23:33:42.724Z,2.75
2022-10-17T23:36:11.010Z,2.58
2022-10-17T23:38:40.200Z,2.35
2022-10-17T23:41:08.007Z,2.20
2022-10-17T23:43:35.577Z,2.28
2022-10-17T23:46:03.642Z,2.85
2022-10-17T23:48:31.504Z,2.53
2022-10-17T23:50:59.065Z,2.42
2022-10-17T23:53:27.163Z,2.45
2022-10-17T23:55:55.958Z,2.65
2022-10-17T23:58:23.402Z,2.40
